Bookmark and Share
Track history (hours):
 

Fonthida Naree

Last reported at 2014-Apr-19 09:33 UTC. Time now 2014-Apr-19 09:50 UTC.
Position N 50°47' E 000°55'.

Length 170 m; draft 9.9 m.

Type: Cargo ship. MMSI: 567265000.

NotesDate/timePositionNaut miles runAvg speedWind from/ knotsBaromVisibWave heightAir tempDewpointWater temp
2014-Apr-19 09:33N 50°47' E 000°55'3014.0
2014-Apr-19 07:26N 51°06' E 001°32'1112.8
2014-Apr-19 06:34N 51°13' E 001°44'1111.1
2014-Apr-19 05:33N 51°23' E 001°53'1110.2
2014-Apr-19 04:31N 51°32' E 002°03'1010.3
2014-Apr-19 03:33N 51°39' E 002°13'35711.0
2014-Apr-17 19:05N 56°42' E 007°37'510.2
2014-Apr-17 18:33N 56°46' E 007°43'10 9.8
2014-Apr-17 17:33N 56°54' E 007°54'88 9.4
2014-Apr-17 08:11N 57°46' E 010°06'610.2
2014-Apr-17 07:33N 57°49' E 010°16'1110.8
2014-Apr-17 06:33N 57°49' E 010°37'1110.8
2014-Apr-17 05:33N 57°44' E 010°55'1211.8
2014-Apr-17 04:33N 57°36' E 011°11'1211.9
2014-Apr-17 03:33N 57°28' E 011°27'1212.2
2014-Apr-17 02:33N 57°16' E 011°34'1212.4
2014-Apr-17 01:33N 57°04' E 011°42'1212.2
2014-Apr-17 00:33N 56°53' E 011°49'1010.1
2014-Apr-16 23:33N 56°43' E 011°48'130 9.3
2014-Apr-16 09:33N 54°34' E 011°19'1111.2
2014-Apr-16 08:33N 54°29' E 011°37'1111.3
2014-Apr-16 07:33N 54°27' E 011°56'10 9.8
2014-Apr-16 06:33N 54°29' E 012°12'9 9.0
2014-Apr-16 05:33N 54°37' E 012°19'10 9.8
2014-Apr-16 04:33N 54°43' E 012°33'1111.2
2014-Apr-16 03:33N 54°49' E 012°49'1211.8
2014-Apr-16 02:33N 54°53' E 013°08'1211.8
2014-Apr-16 01:33N 54°57' E 013°28'1212.0
2014-Apr-16 00:33N 55°00' E 013°47'1211.7
2014-Apr-15 23:33N 55°05' E 014°06'1211.8
2014-Apr-15 22:33N 55°14' E 014°19'1212.1
2014-Apr-15 21:33N 55°24' E 014°33'1212.0
2014-Apr-15 20:33N 55°31' E 014°50'1212.2
2014-Apr-15 19:33N 55°36' E 015°09'36111.0
2014-Apr-14 10:33N 59°39' E 023°30'1211.8
2014-Apr-14 09:33N 59°43' E 023°52'18911.1
2014-Apr-13 16:25N 59°54' E 030°08'2 0.5
2014-Apr-13 12:28N 59°53' E 030°11'0 0.0
2014-Apr-13 11:23N 59°53' E 030°11'2 0.1
2014-Apr-12 04:30N 59°54' E 030°07'110 9.7
2014-Apr-11 17:12N 59°58' E 026°28'5113.7
2014-Apr-11 13:29N 59°47' E 024°49'1313.7
2014-Apr-11 12:33N 59°44' E 024°24'2913.8
2014-Apr-11 10:27N 59°35' E 023°30'36012.5
2014-Apr-10 05:33N 55°33' E 015°13'1212.5
2014-Apr-10 04:33N 55°28' E 014°53'1211.8
2014-Apr-10 03:33N 55°21' E 014°36'1211.7
2014-Apr-10 02:33N 55°12' E 014°23'1211.6
2014-Apr-10 01:33N 55°10' E 014°03'1312.7
2014-Apr-10 00:33N 55°11' E 013°41'1312.6
2014-Apr-09 23:33N 55°12' E 013°19'1312.8
2014-Apr-09 22:33N 55°14' E 012°56'1211.9
2014-Apr-09 21:33N 55°20' E 012°38'1212.3
2014-Apr-09 20:33N 55°32' E 012°42'1110.6
2014-Apr-09 19:33N 55°42' E 012°41'1212.3
2014-Apr-09 18:33N 55°55' E 012°39'1212.4
2014-Apr-09 17:33N 56°07' E 012°32'1211.7
2014-Apr-09 16:33N 56°13' E 012°15'1312.9
2014-Apr-09 15:33N 56°24' E 012°01'1413.8
2014-Apr-09 14:33N 56°37' E 011°55'1513.6
2014-Apr-09 13:26N 56°52' E 011°48'1213.8
2014-Apr-09 12:33N 57°03' E 011°40'1413.5
2014-Apr-09 11:33N 57°16' E 011°32'1413.6
2014-Apr-09 10:33N 57°28' E 011°21'1312.8
2014-Apr-09 09:33N 57°37' E 011°05'  

Dump ship's entire track history

sailing weather and tide predictions

Fonthida Naree — HSJR — position and weather